Trivandrum, India

7:01 PM IST on September 17, 2014 (GMT +0530)
Trivandrum | Change Station
CLOSE
Current Station
Airport
Location: Thiruvananthapuram Airport,
Elevation: 13 ft
Nearby Weather Stations

Elev 13 ft 8.47 °N, 76.95 °E | Updated 21 minutes ago

Haze
Haze
84 °F
Feels Like 92 °F
N
6
Wind Variable Wind from WNW

Today
High -- | Low -- °F
--% Chance of Precip.
Yesterday
High -- | Low -- °F
Precip. -- in
6:12 AM 6:21 PM
Waning Crescent, 36% visible
Pressure 29.74 in
Visibility 3.1 miles
Clouds Scattered Clouds 1500 ft
Few 2500 ft
Scattered Clouds 10000 ft
Heat Index 92 °F
Dew Point 75 °F
Humidity 74%
Rainfall 0.00 in
Snow Depth Not available.
UV 0 out of 12
Pollen Not available.
Air Quality Not available.
Flu Activity Not available.
METAR VOTV 171310Z 29005KT 5000 HZ SCT015 FEW025CB SCT100 29/24 Q1007 TEMPO 4000 HZ

More Conditions Fewer Conditions

Pressure 29.74 in
Visibility 3.1 miles
Clouds Scattered Clouds 1500 ft
Few 2500 ft
Scattered Clouds 10000 ft
Heat Index 92 °F
Dew Point 75 °F
Humidity 74%
Rainfall 0.00 in
Snow Depth Not available.
UV 0 out of 12
Pollen Not available.
Air Quality Not available.
Flu Activity Not available.
METAR VOTV 171310Z 29005KT 5000 HZ SCT015 FEW025CB SCT100 29/24 Q1007 TEMPO 4000 HZ

More Conditions Fewer Conditions

10-Day Weather Forecast

Almanac

Astronomy

Sep. 17, 2014 Rise Set
Actual Time 6:12 AM IST 6:21 PM IST
Civil Twilight 5:51 AM IST 6:42 PM IST
Nautical Twilight 5:27 AM IST 7:06 PM IST
Astronomical Twilight 5:02 AM IST 7:31 PM IST
Moon 12:36 AM IST 1:23 PM IST
Length of Visible Light 12h 51m
Length of Day
12h 09m
Tomorrow will be 0m 28s shorter.
Waning Crescent, 36% of the Moon is Illuminated
Today
Waning Crescent
Sep 24
New
Oct 1
First Quarter
Oct 8
Full
Oct 15
Last Quarter

Yesterday's Extremes

Country Highs Country Lows

Community

WunderPhotos

Upload Photos

1,754,029 photos uploaded!

Nearby

Snow Depth

Not available.

Earthquake Activity

City Distance Mag. Time & Date
No recent earthquake activity has been reported nearby.
Minimum magnitude displayed is 2.5.

Coastal Water Temperatures

Place Temperature
No Stations Reporting

Nearby Weather Stations